Middleton Island, Alaska
Current Conditions -  °F | °C
As of 6:16 AM on Friday 31 Oct 2014 (Local Time) from PAMD Reporting Station
Overcast Overcast  
Wind Chill: 30°   Ceiling: 2600
Heat Index: 37°   Visibility: 10mi
Dew Point: 34°   Wind: 12mph
Humidity: 87%   Direction: 180°S
Pressure: 29.26"   Gusts: 18mph
Location:  59.43°N, 146.33°W
Report Text: PAMD 311416Z 18010G16KT 10SM SCT020 BKN026 OVC048 03/01 A2926 RMK AO1
Loading
Personal Weather Stations






























Interactive Weather Map
Tropical Storm Tracking
New forecast layout! Learn more

10-Day Weather Forecast

Advertisements
Track Severe Weather on mobile